Latest Coastal Weather Observations for Groote Eylandt Airport

IDD60701

Issued at 10:05 pm CST Thursday 17 April 2014 (issued every 10 minutes, with the page automatically refreshed every 10 minutes)

About coastal observations | Map of coastal stations | Coastal observations for NT | Marine services | Other Formats
Station Details ID: 014518 Name: GROOTE EYLANDT AIRPORT Lat: -13.97 Lon: 136.46 Height: 13.7 m
Data from the previous 72 hours. | See also: Recent months at Groote Eylandt Airport
Date/Time
CST
Temp

°C
Wind Pressure Rain
since 9am
mm
Weather Cloud Vis
km
Sea
Height
m
Swell
Dir
 
Speed
knots
Gust
knots
hPa Trend Height
m
Period
s
Dir
17/10:00pm 25.4 SSE 0 0 1012.1 - 0.0 - - - - - - -
17/09:30pm 25.6 CALM 0 0 1012.3 - 0.0 - - - - - - -
17/09:00pm 25.5 S 1 3 1012.0 - 0.0 - - - - - - -
17/08:30pm 25.5 S 2 4 1011.8 - 0.0 - - - - - - -
17/08:00pm 25.6 SSE 1 3 1011.6 - 0.0 - - - - - - -
17/07:30pm 25.5 S 3 3 1011.2 - 0.0 - - - - - - -
17/07:00pm 25.5 CALM 0 0 1010.7 - 0.0 - - - - - - -
17/06:30pm 25.8 SE 3 4 1010.6 - 0.0 - - - - - - -
17/06:00pm 26.0 SE 3 5 1010.1 - 0.0 - - - - - - -
17/05:30pm 26.1 E 5 8 1010.3 - 0.0 - - - - - - -
17/05:00pm 26.1 ENE 4 6 1009.7 - 0.0 - - - - - - -
17/04:30pm 26.3 E 9 12 1009.2 - 0.0 - - - - - - -
17/04:00pm 27.9 CALM 0 0 1009.0 - 0.0 - - - - - - -
17/03:30pm 28.7 E 6 11 1008.8 - 0.0 - - - - - - -
17/03:00pm 28.9 E 7 11 1008.8 - 0.0 - - - - - - -
17/02:30pm 28.5 ENE 8 11 1009.2 - 0.0 - - - - - - -
17/02:00pm 28.5 NE 6 9 1009.3 - 0.0 - - - - - - -
17/01:30pm 27.5 E 7 11 1010.0 - 0.0 - - - - - - -
17/01:00pm 26.8 E 9 12 1009.8 - 0.0 - - - - - - -
17/12:30pm 26.2 ENE 7 11 1010.6 - 0.0 - - - - - - -
17/12:00pm 25.9 E 12 16 1010.6 - 0.0 - - - - - - -
17/11:30am 27.3 E 13 20 1011.4 - 0.0 - - - - - - -
17/11:00am 27.3 E 13 19 1011.3 - 0.0 - - - - - - -
17/10:41am 29.2 E 15 27 1011.2 - 0.0 - - - - - - -
17/10:30am 31.7 E 13 20 1011.0 - 0.0 - - - - - - -
17/10:00am 31.3 E 14 19 1011.2 - 0.0 - - - - - - -
17/09:30am 30.5 ENE 7 11 1011.1 - 0.0 - - - - - - -
17/09:00am 28.4 E 5 7 1011.1 - 0.0 - - - - - - -
17/08:30am 27.0 CALM 0 4 1011.4 - 0.0 - - - - - - -
17/08:00am 25.1 E 2 5 1011.1 - 0.0 - - - - - - -
17/07:30am 24.3 CALM 0 0 1011.0 - 0.0 - - - - - - -
17/07:00am 23.8 CALM 0 0 1010.8 - 0.0 - - - - - - -
17/06:30am 23.4 CALM 0 0 1010.4 - 0.0 - - - - - - -
17/06:00am 23.5 CALM 0 0 1010.0 - 0.0 - - - - - - -
17/05:30am 23.6 CALM 0 0 1009.6 - 0.0 - - - - - - -
17/05:00am 23.8 CALM 0 0 1009.4 - 0.0 - - - - - - -
17/04:30am 23.6 CALM 0 0 1009.4 - 0.0 - - - - - - -
17/04:00am 22.9 SSE 4 6 1009.1 - 0.0 - - - - - - -
17/03:30am 22.7 CALM 0 0 1009.1 - 0.0 - - - - - - -
17/03:00am 22.7 CALM 0 0 1009.1 - 0.0 - - - - - - -
17/02:30am 23.1 CALM 0 0 1009.3 - 0.0 - - - - - - -
17/02:00am 22.4 CALM 0 0 1009.8 - 0.0 - - - - - - -
17/01:30am 22.6 ESE 2 3 1010.1 - 0.0 - - - - - - -
17/01:00am 22.3 CALM 0 0 1010.2 - 0.0 - - - - - - -
17/12:30am 23.0 CALM 0 0 1010.5 - 0.0 - - - - - - -
17/12:00am 22.9 SE 0 3 1010.7 - 0.0 - - - - - - -
 
Date/Time
CST
Temp

°C
Wind Pressure Rain
since 9am
mm
Weather Cloud Vis
km
Sea
Height
m
Swell
Dir
 
Speed
knots
Gust
knots
hPa Trend Height
m
Period
s
Dir
16/11:30pm 23.1 CALM 0 0 1011.0 - 0.0 - - - - - - -
16/11:00pm 23.4 ESE 2 4 1011.2 - 0.0 - - - - - - -
16/10:30pm 23.4 CALM 0 0 1011.2 - 0.0 - - - - - - -
16/10:00pm 23.7 CALM 0 0 1011.4 - 0.0 - - - - - - -
16/09:30pm 24.2 CALM 0 4 1011.4 - 0.0 - - - - - - -
16/09:00pm 24.2 CALM 0 0 1010.9 - 0.0 - - - - - - -
16/08:30pm 24.6 CALM 0 3 1010.7 - 0.0 - - - - - - -
16/08:00pm 25.0 CALM 0 0 1010.4 - 0.0 - - - - - - -
16/07:30pm 26.2 CALM 0 3 1009.8 - 0.0 - - - - - - -
16/07:00pm 26.6 E 3 4 1009.5 - 0.0 - - - - - - -
16/06:30pm 27.2 E 3 4 1009.3 - 0.0 - - - - - - -
16/06:00pm 28.2 E 4 5 1009.1 - 0.0 - - - - - - -
16/05:30pm 28.7 ESE 3 4 1009.0 - 0.0 - - - - - - -
16/05:00pm 29.1 WSW 1 3 1008.9 - 0.0 - - - - - - -
16/04:30pm 28.8 S 3 4 1008.9 - 0.0 - - - - - - -
16/04:00pm 29.1 SW 5 8 1008.8 - 0.0 - - - - - - -
16/03:30pm 29.0 SW 6 10 1008.7 - 0.0 - - - - - - -
16/03:00pm 27.4 W 5 7 1008.9 - 0.0 - - - - - - -
16/02:30pm 28.1 NW 6 8 1009.0 - 0.0 - - - - - - -
16/02:00pm 30.4 W 6 9 1009.1 - 0.0 - - - - - - -
16/01:30pm 31.1 W 5 7 1009.3 - 0.0 - - - - - - -
16/01:00pm 31.8 WNW 8 11 1009.3 - 0.0 - - - - - - -
16/12:30pm 31.2 WNW 8 11 1009.4 - 0.0 - - - - - - -
16/12:00pm 31.8 W 6 8 1009.6 - 0.0 - - - - - - -
16/11:30am 31.9 SSW 4 9 1010.3 - 0.0 - - - - - - -
16/11:00am 32.1 ENE 3 7 1010.6 - 0.0 - - - - - - -
16/10:30am 32.0 NE 4 6 1011.1 - 0.0 - - - - - - -
16/10:00am 31.6 ENE 5 8 1011.1 - 0.0 - - - - - - -
16/09:30am 30.9 E 5 7 1011.1 - 0.0 - - - - - - -
16/09:00am 29.8 E 4 7 1011.0 - 0.0 - - - - - - -
16/08:30am 28.1 CALM 0 0 1011.0 - 0.0 - - - - - - -
16/08:00am 25.7 CALM 0 0 1010.8 - 0.0 - - - - - - -
16/07:30am 23.4 CALM 0 0 1010.8 - 0.0 - - - - - - -
16/07:00am 20.9 CALM 0 0 1010.4 - 0.0 - - - - - - -
16/06:30am 20.2 CALM 0 0 1010.2 - 0.0 - - - - - - -
16/06:00am 20.3 CALM 0 0 1009.8 - 0.0 - - - - - - -
16/05:30am 20.7 ESE 3 4 1009.7 - 0.0 - - - - - - -
16/05:00am 20.3 ESE 3 4 1009.4 - 0.0 - - - - - - -
16/04:30am 20.7 E 5 6 1009.3 - 0.0 - - - - - - -
16/04:00am 20.2 CALM 0 0 1009.2 - 0.0 - - - - - - -
16/03:30am 20.4 CALM 0 0 1009.0 - 0.0 - - - - - - -
16/03:00am 20.6 CALM 0 0 1009.0 - 0.0 - - - - - - -
16/02:30am 20.7 CALM 0 0 1009.1 - 0.0 - - - - - - -
16/02:00am 20.5 CALM 0 0 1009.4 - 0.0 - - - - - - -
16/01:30am 20.9 CALM 0 0 1009.6 - 0.0 - - - - - - -
16/01:00am 20.7 CALM 0 0 1009.9 - 0.0 - - - - - - -
16/12:30am 21.1 CALM 0 0 1010.1 - 0.0 - - - - - - -
16/12:00am 21.0 CALM 0 0 1010.2 - 0.0 - - - - - - -
 
Date/Time
CST
Temp

°C
Wind Pressure Rain
since 9am
mm
Weather Cloud Vis
km
Sea
Height
m
Swell
Dir
 
Speed
knots
Gust
knots
hPa Trend Height
m
Period
s
Dir
15/11:30pm 21.6 CALM 0 0 1010.5 - 0.0 - - - - - - -
15/11:00pm 21.6 CALM 0 0 1010.6 - 0.0 - - - - - - -
15/10:30pm 22.4 CALM 0 0 1010.7 - 0.0 - - - - - - -
15/10:00pm 22.4 CALM 0 0 1010.7 - 0.0 - - - - - - -
15/09:30pm 23.0 CALM 0 0 1010.8 - 0.0 - - - - - - -
15/09:00pm 23.7 CALM 0 0 1010.8 - 0.0 - - - - - - -
15/08:30pm 24.0 CALM 0 0 1010.8 - 0.0 - - - - - - -
15/08:00pm 24.8 CALM 0 0 1010.5 - 0.0 - - - - - - -
15/07:30pm 25.2 CALM 0 0 1010.0 - 0.0 - - - - - - -
15/07:00pm 26.2 CALM 0 0 1009.4 - 0.0 - - - - - - -
15/06:30pm 27.8 CALM 0 0 1009.0 - 0.0 - - - - - - -
15/06:00pm 30.8 WSW 3 4 1008.6 - 0.0 - - - - - - -
15/05:30pm 32.4 WSW 2 4 1008.6 - 0.0 - - - - - - -
15/05:00pm 32.7 SW 4 9 1008.4 - 0.0 - - - - - - -
15/04:30pm 33.3 SW 4 8 1008.1 - 0.0 - - - - - - -
15/04:00pm 33.1 SSW 6 8 1008.1 - 0.0 - - - - - - -
15/03:30pm 33.2 SW 6 11 1008.3 - 0.0 - - - - - - -
15/03:00pm 33.1 S 6 11 1008.3 - 0.0 - - - - - - -
15/02:30pm 33.3 SW 6 10 1008.6 - 0.0 - - - - - - -
15/02:00pm 33.2 SSW 6 9 1008.8 - 0.0 - - - - - - -
15/01:30pm 33.8 SW 6 11 1009.2 - 0.0 - - - - - - -
15/01:00pm 33.2 SW 6 11 1009.6 - 0.0 - - - - - - -
15/12:30pm 32.8 S 6 9 1010.1 - 0.0 - - - - - - -
15/12:00pm 32.5 S 5 8 1010.4 - 0.0 - - - - - - -
15/11:30am 32.4 SW 4 6 1010.9 - 0.0 - - - - - - -
15/11:00am 32.2 S 6 10 1011.4 - 0.0 - - - - - - -
15/10:30am 31.6 SSW 7 12 1011.7 - 0.0 - - - - - - -
15/10:00am 31.1 SSW 7 12 1011.6 - 0.0 - - - - - - -
15/09:30am 31.2 S 5 9 1011.6 - 0.0 - - - - - - -
15/09:00am 30.6 SSE 3 5 1011.3 - 0.0 - - - - - - -
15/08:30am 28.7 CALM 0 0 1011.1 - 0.0 - - - - - - -
15/08:00am 26.8 CALM 0 0 1011.0 - 0.0 - - - - - - -
15/07:30am 24.2 CALM 0 0 1010.8 - 0.0 - - - - - - -
15/07:00am 22.5 CALM 0 0 1010.6 - 0.0 - - - - - - -
15/06:30am 21.8 CALM 0 0 1010.4 - 0.0 - - - - - - -
15/06:00am 21.8 CALM 0 0 1010.0 - 0.0 - - - - - - -
15/05:30am 21.9 CALM 0 0 1009.9 - 0.0 - - - - - - -
15/05:00am 22.0 ESE 2 3 1009.6 - 0.0 - - - - - - -
15/04:30am 21.7 CALM 0 0 1009.4 - 0.0 - - - - - - -
15/04:00am 22.1 CALM 0 0 1009.2 - 0.0 - - - - - - -
15/03:30am 22.4 CALM 0 0 1009.1 - 0.0 - - - - - - -
15/03:00am 22.8 CALM 0 0 1008.9 - 0.0 - - - - - - -
15/02:30am 22.9 CALM 0 0 1009.0 - 0.0 - - - - - - -
15/02:00am 23.5 CALM 0 0 1009.1 - 0.0 - - - - - - -
15/01:30am 24.0 CALM 0 0 1009.4 - 0.0 - - - - - - -
15/01:00am 24.6 CALM 0 0 1009.7 - 0.0 - - - - - - -
15/12:30am 24.8 CALM 0 0 1009.9 - 0.0 - - - - - - -
15/12:00am 24.8 CALM 0 0 1010.0 - 0.0 - - - - - - -
 
Date/Time
CST
Temp

°C
Wind Pressure Rain
since 9am
mm
Weather Cloud Vis
km
Sea
Height
m
Swell
Dir
 
Speed
knots
Gust
knots
hPa Trend Height
m
Period
s
Dir
14/11:30pm 24.6 CALM 0 0 1010.3 - 0.0 - - - - - - -
14/11:00pm 24.6 E 4 4 1010.4 - 0.0 - - - - - - -
14/10:30pm 24.5 CALM 0 0 1010.4 - 0.0 - - - - - - -

Other Formats:

Comma delimited format used in spreadsheet applications
http://www.bom.gov.au/fwo/IDD60701/IDD60701.94153.axf

JavaScript Object Notation format (JSON) in row-major order
http://www.bom.gov.au/fwo/IDD60701/IDD60701.94153.json